Terminal Aerodrome Forecast
Issued by NWS

Home | Current Version | Previous Version | Text Only | Print | Product List | Glossary On
Versions: 1 2 3 4 5 6 7 8 9 10 11 12 13 14 15 16 17 18 19 20 21 22
426
FTUS43 KLSX 161625 AAA
TAFCPS
TAF AMD
KCPS 161625Z 1616/1712 15005KT 1/4SM FG OVC002
     FM161700 12007KT 2SM -SHRA BR OVC003
     FM161800 14009KT 4SM -SHRA BR OVC004
     FM162200 14010KT 4SM -SHRA BR OVC006
     FM170300 18008KT 5SM -SHRA BR OVC012
     FM170600 22009KT 5SM BR OVC012=

USA.gov is the U.S. government's official web portal to all federal, state and local government web resources and services.